sensor_id;sensor_type;location;lat;lon;timestamp;pressure;altitude;pressure_sealevel;temperature;humidity
42247;BME280;27913;42.722;23.268;2023-05-08T00:04:19;95013.81;;;14.17;65.08
42247;BME280;27913;42.722;23.268;2023-05-08T00:06:46;95180.53;;;15.22;65.59
42247;BME280;27913;42.722;23.268;2023-05-08T00:09:11;95178.75;;;15.16;65.78
42247;BME280;27913;42.722;23.268;2023-05-08T00:11:37;95180.56;;;15.15;65.68
42247;BME280;27913;42.722;23.268;2023-05-08T00:14:03;95027.44;;;14.20;65.03
42247;BME280;27913;42.722;23.268;2023-05-08T00:16:28;95138.75;;;14.78;65.90
42247;BME280;27913;42.722;23.268;2023-05-08T00:18:54;95175.97;;;14.97;66.18
42247;BME280;27913;42.722;23.268;2023-05-08T00:21:20;95174.97;;;14.98;66.59
42247;BME280;27913;42.722;23.268;2023-05-08T00:23:46;95179.81;;;15.01;66.30
42247;BME280;27913;42.722;23.268;2023-05-08T00:26:11;95185.72;;;15.03;66.35
42247;BME280;27913;42.722;23.268;2023-05-08T00:28:37;95060.59;;;14.16;66.20
42247;BME280;27913;42.722;23.268;2023-05-08T00:31:02;95192.06;;;15.02;67.06
42247;BME280;27913;42.722;23.268;2023-05-08T00:33:28;95050.84;;;14.17;67.11
42247;BME280;27913;42.722;23.268;2023-05-08T00:36:00;95135.16;;;14.59;67.11
42247;BME280;27913;42.722;23.268;2023-05-08T00:38:29;95192.09;;;14.89;67.35
42247;BME280;27913;42.722;23.268;2023-05-08T00:40:54;95050.31;;;13.87;67.97
42247;BME280;27913;42.722;23.268;2023-05-08T00:43:20;95196.59;;;14.74;67.71
42247;BME280;27913;42.722;23.268;2023-05-08T00:45:50;95115.75;;;14.12;68.15
42247;BME280;27913;42.722;23.268;2023-05-08T00:48:16;95110.47;;;14.06;68.11
42247;BME280;27913;42.722;23.268;2023-05-08T00:50:42;95207.22;;;14.61;67.95
42247;BME280;27913;42.722;23.268;2023-05-08T00:53:07;95202.78;;;14.55;67.97
42247;BME280;27913;42.722;23.268;2023-05-08T00:55:33;95160.09;;;14.17;68.89
42247;BME280;27913;42.722;23.268;2023-05-08T00:57:58;95154.63;;;14.05;69.21
42247;BME280;27913;42.722;23.268;2023-05-08T01:00:24;95208.06;;;14.34;69.70
42247;BME280;27913;42.722;23.268;2023-05-08T01:02:50;95201.78;;;14.29;69.58
42247;BME280;27913;42.722;23.268;2023-05-08T01:05:16;95085.28;;;13.49;69.78
42247;BME280;27913;42.722;23.268;2023-05-08T01:07:42;95209.72;;;14.15;70.13
42247;BME280;27913;42.722;23.268;2023-05-08T01:10:08;95213.41;;;14.14;70.66
42247;BME280;27913;42.722;23.268;2023-05-08T01:20:57;95177.59;;;13.84;70.84
42247;BME280;27913;42.722;23.268;2023-05-08T01:32:22;95211.34;;;14.03;71.29
42247;BME280;27913;42.722;23.268;2023-05-08T01:34:51;95203.22;;;14.04;71.37
42247;BME280;27913;42.722;23.268;2023-05-08T01:37:31;95143.03;;;13.72;71.07
42247;BME280;27913;42.722;23.268;2023-05-08T01:40:06;95166.41;;;13.82;71.00
42247;BME280;27913;42.722;23.268;2023-05-08T01:45:11;95161.72;;;13.77;71.07
42247;BME280;27913;42.722;23.268;2023-05-08T01:47:38;95171.31;;;13.72;72.05
42247;BME280;27913;42.722;23.268;2023-05-08T01:50:19;95158.66;;;13.60;71.38
42247;BME280;27913;42.722;23.268;2023-05-08T01:52:50;95137.91;;;13.37;71.92
42247;BME280;27913;42.722;23.268;2023-05-08T01:55:20;95163.94;;;13.53;72.27
42247;BME280;27913;42.722;23.268;2023-05-08T01:57:52;95146.47;;;13.46;71.40
42247;BME280;27913;42.722;23.268;2023-05-08T02:00:21;95198.13;;;13.75;71.75
42247;BME280;27913;42.722;23.268;2023-05-08T02:02:49;95200.16;;;13.73;71.92
42247;BME280;27913;42.722;23.268;2023-05-08T02:05:15;95056.97;;;12.75;72.10
42247;BME280;27913;42.722;23.268;2023-05-08T02:07:44;95039.66;;;12.59;72.49
42247;BME280;27913;42.722;23.268;2023-05-08T02:10:11;95195.09;;;13.65;72.42
42247;BME280;27913;42.722;23.268;2023-05-08T02:12:38;95199.53;;;13.64;72.80
42247;BME280;27913;42.722;23.268;2023-05-08T02:15:07;95171.84;;;13.40;72.92
42247;BME280;27913;42.722;23.268;2023-05-08T02:17:35;95164.88;;;13.19;73.32
42247;BME280;27913;42.722;23.268;2023-05-08T02:20:07;95203.94;;;13.37;73.68
42247;BME280;27913;42.722;23.268;2023-05-08T02:22:40;95159.59;;;13.19;73.44
42247;BME280;27913;42.722;23.268;2023-05-08T02:25:07;95167.31;;;13.13;73.58
42247;BME280;27913;42.722;23.268;2023-05-08T02:27:33;95047.50;;;12.31;73.40
42247;BME280;27913;42.722;23.268;2023-05-08T02:29:59;95115.22;;;12.73;73.32
42247;BME280;27913;42.722;23.268;2023-05-08T02:32:25;95167.72;;;13.10;73.48
42247;BME280;27913;42.722;23.268;2023-05-08T02:34:52;95133.28;;;12.83;73.37
42247;BME280;27913;42.722;23.268;2023-05-08T02:37:20;95104.63;;;12.60;73.38
42247;BME280;27913;42.722;23.268;2023-05-08T02:39:47;95165.41;;;12.93;73.88
42247;BME280;27913;42.722;23.268;2023-05-08T02:42:15;95202.66;;;13.19;73.90
42247;BME280;27913;42.722;23.268;2023-05-08T02:44:41;95136.91;;;12.68;74.22
42247;BME280;27913;42.722;23.268;2023-05-08T02:47:46;95119.16;;;12.49;74.27
42247;BME280;27913;42.722;23.268;2023-05-08T02:50:37;95114.31;;;12.52;74.07
42247;BME280;27913;42.722;23.268;2023-05-08T02:53:10;95213.16;;;13.05;74.20
42247;BME280;27913;42.722;23.268;2023-05-08T02:55:45;95210.91;;;12.96;74.73
42247;BME280;27913;42.722;23.268;2023-05-08T02:59:05;95158.38;;;12.59;74.90
42247;BME280;27913;42.722;23.268;2023-05-08T03:01:27;95200.31;;;12.89;75.26
42247;BME280;27913;42.722;23.268;2023-05-08T03:04:18;95201.72;;;12.91;75.36
42247;BME280;27913;42.722;23.268;2023-05-08T03:06:47;95152.50;;;12.63;75.55
42247;BME280;27913;42.722;23.268;2023-05-08T03:09:22;95209.31;;;13.01;75.43
42247;BME280;27913;42.722;23.268;2023-05-08T03:11:58;95181.84;;;12.89;74.32
42247;BME280;27913;42.722;23.268;2023-05-08T03:14:27;95136.72;;;12.70;74.43
42247;BME280;27913;42.722;23.268;2023-05-08T03:16:56;95214.25;;;13.25;74.50
42247;BME280;27913;42.722;23.268;2023-05-08T03:19:27;95200.66;;;13.28;73.88
42247;BME280;27913;42.722;23.268;2023-05-08T03:21:54;95175.22;;;13.13;73.71
42247;BME280;27913;42.722;23.268;2023-05-08T03:24:22;95142.28;;;12.96;73.90
42247;BME280;27913;42.722;23.268;2023-05-08T03:26:50;95214.72;;;13.42;73.63
42247;BME280;27913;42.722;23.268;2023-05-08T03:29:17;95176.28;;;13.26;73.68
42247;BME280;27913;42.722;23.268;2023-05-08T03:31:43;95176.69;;;13.29;72.89
42247;BME280;27913;42.722;23.268;2023-05-08T03:34:11;95186.03;;;13.39;73.48
42247;BME280;27913;42.722;23.268;2023-05-08T03:36:36;95182.00;;;13.36;73.67
42247;BME280;27913;42.722;23.268;2023-05-08T03:39:02;95216.22;;;13.65;73.45
42247;BME280;27913;42.722;23.268;2023-05-08T03:41:29;95068.91;;;12.77;73.04
42247;BME280;27913;42.722;23.268;2023-05-08T03:43:55;95186.13;;;13.59;73.20
42247;BME280;27913;42.722;23.268;2023-05-08T03:46:22;95220.31;;;13.88;72.73
42247;BME280;27913;42.722;23.268;2023-05-08T03:48:48;95097.47;;;13.23;72.34
42247;BME280;27913;42.722;23.268;2023-05-08T03:51:15;95167.22;;;13.62;72.06
42247;BME280;27913;42.722;23.268;2023-05-08T03:53:41;95193.44;;;13.77;71.45
42247;BME280;27913;42.722;23.268;2023-05-08T03:56:07;95220.09;;;14.03;70.70
42247;BME280;27913;42.722;23.268;2023-05-08T03:58:36;95189.59;;;13.80;70.56
42247;BME280;27913;42.722;23.268;2023-05-08T04:01:08;95192.25;;;13.80;70.52
42247;BME280;27913;42.722;23.268;2023-05-08T04:09:01;95241.88;;;14.19;70.18
42247;BME280;27913;42.722;23.268;2023-05-08T04:11:43;95152.19;;;13.70;70.04
42247;BME280;27913;42.722;23.268;2023-05-08T04:14:15;95244.50;;;14.25;69.41
42247;BME280;27913;42.722;23.268;2023-05-08T04:16:49;95112.56;;;13.56;69.26
42247;BME280;27913;42.722;23.268;2023-05-08T04:19:23;95238.81;;;14.42;68.96
42247;BME280;27913;42.722;23.268;2023-05-08T04:21:53;95190.00;;;14.04;68.79
42247;BME280;27913;42.722;23.268;2023-05-08T04:24:22;95221.31;;;14.28;68.98
42247;BME280;27913;42.722;23.268;2023-05-08T04:26:49;95212.38;;;14.08;70.37
42247;BME280;27913;42.722;23.268;2023-05-08T04:29:16;95244.31;;;14.13;71.04
42247;BME280;27913;42.722;23.268;2023-05-08T04:31:42;95186.34;;;13.78;70.77
42247;BME280;27913;42.722;23.268;2023-05-08T04:34:08;95154.00;;;13.62;70.50
42247;BME280;27913;42.722;23.268;2023-05-08T04:36:34;95198.53;;;13.99;70.03
42247;BME280;27913;42.722;23.268;2023-05-08T04:39:00;95213.19;;;14.16;69.37
42247;BME280;27913;42.722;23.268;2023-05-08T04:41:26;95236.75;;;14.44;68.92
42247;BME280;27913;42.722;23.268;2023-05-08T04:43:52;95118.25;;;13.73;68.77
42247;BME280;27913;42.722;23.268;2023-05-08T04:46:18;95133.88;;;13.95;68.96
42247;BME280;27913;42.722;23.268;2023-05-08T04:48:43;95197.06;;;14.37;68.83
42247;BME280;27913;42.722;23.268;2023-05-08T04:51:08;95210.72;;;14.55;68.76
42247;BME280;27913;42.722;23.268;2023-05-08T04:53:34;95197.66;;;14.53;69.20
42247;BME280;27913;42.722;23.268;2023-05-08T04:56:00;95240.59;;;14.82;69.17
42247;BME280;27913;42.722;23.268;2023-05-08T04:58:25;95203.72;;;14.67;68.98
42247;BME280;27913;42.722;23.268;2023-05-08T05:00:53;95235.28;;;14.89;68.71
42247;BME280;27913;42.722;23.268;2023-05-08T05:03:19;95224.88;;;14.94;68.51
42247;BME280;27913;42.722;23.268;2023-05-08T05:05:44;95224.44;;;14.97;68.45
42247;BME280;27913;42.722;23.268;2023-05-08T05:08:10;95224.50;;;14.84;68.73
42247;BME280;27913;42.722;23.268;2023-05-08T05:10:37;95222.06;;;14.62;69.27
42247;BME280;27913;42.722;23.268;2023-05-08T05:13:03;95196.88;;;14.39;69.53
42247;BME280;27913;42.722;23.268;2023-05-08T05:15:28;95183.47;;;14.41;69.67
42247;BME280;27913;42.722;23.268;2023-05-08T05:17:54;95197.84;;;14.65;69.34
42247;BME280;27913;42.722;23.268;2023-05-08T05:20:19;95173.84;;;14.60;68.41
42247;BME280;27913;42.722;23.268;2023-05-08T05:22:48;95216.75;;;14.76;67.85
42247;BME280;27913;42.722;23.268;2023-05-08T05:25:13;95215.78;;;14.49;68.52
42247;BME280;27913;42.722;23.268;2023-05-08T05:27:39;95215.41;;;14.46;67.69
42247;BME280;27913;42.722;23.268;2023-05-08T05:30:05;95213.59;;;14.06;67.58
42247;BME280;27913;42.722;23.268;2023-05-08T05:32:31;95193.66;;;13.83;68.89
42247;BME280;27913;42.722;23.268;2023-05-08T05:34:56;95130.63;;;13.59;69.07
42247;BME280;27913;42.722;23.268;2023-05-08T05:37:22;95204.03;;;14.11;69.52
42247;BME280;27913;42.722;23.268;2023-05-08T05:39:47;95223.97;;;14.28;68.93
42247;BME280;27913;42.722;23.268;2023-05-08T05:42:13;95146.28;;;13.74;68.64
42247;BME280;27913;42.722;23.268;2023-05-08T05:44:39;95186.34;;;14.12;68.10
42247;BME280;27913;42.722;23.268;2023-05-08T05:47:05;95185.28;;;14.20;67.55
42247;BME280;27913;42.722;23.268;2023-05-08T05:49:34;95223.91;;;14.61;67.20
42247;BME280;27913;42.722;23.268;2023-05-08T05:52:00;95190.34;;;14.48;65.89
42247;BME280;27913;42.722;23.268;2023-05-08T05:54:25;95222.63;;;14.78;65.55
42247;BME280;27913;42.722;23.268;2023-05-08T05:56:51;95216.97;;;14.81;65.63
42247;BME280;27913;42.722;23.268;2023-05-08T05:59:16;95216.97;;;14.67;66.03
42247;BME280;27913;42.722;23.268;2023-05-08T06:01:42;95203.97;;;14.59;66.91
42247;BME280;27913;42.722;23.268;2023-05-08T06:04:07;95169.59;;;14.52;66.10
42247;BME280;27913;42.722;23.268;2023-05-08T06:06:33;95182.19;;;14.57;65.90
42247;BME280;27913;42.722;23.268;2023-05-08T06:08:59;95171.00;;;14.61;65.96
42247;BME280;27913;42.722;23.268;2023-05-08T06:11:24;95125.78;;;14.63;65.05
42247;BME280;27913;42.722;23.268;2023-05-08T06:13:50;95186.78;;;15.34;64.12
42247;BME280;27913;42.722;23.268;2023-05-08T06:16:16;95193.94;;;15.66;63.42
42247;BME280;27913;42.722;23.268;2023-05-08T06:18:41;95173.66;;;15.79;62.29
42247;BME280;27913;42.722;23.268;2023-05-08T06:21:07;95202.47;;;16.08;61.45
42247;BME280;27913;42.722;23.268;2023-05-08T06:23:32;95196.56;;;16.05;60.94
42247;BME280;27913;42.722;23.268;2023-05-08T06:25:58;95150.72;;;15.66;61.38
42247;BME280;27913;42.722;23.268;2023-05-08T06:28:23;95166.53;;;15.79;61.04
42247;BME280;27913;42.722;23.268;2023-05-08T06:30:50;95129.94;;;15.63;60.84
42247;BME280;27913;42.722;23.268;2023-05-08T06:33:17;95217.22;;;16.22;60.27
42247;BME280;27913;42.722;23.268;2023-05-08T06:35:46;95171.19;;;15.84;60.18
42247;BME280;27913;42.722;23.268;2023-05-08T06:38:12;95148.50;;;15.63;60.90
42247;BME280;27913;42.722;23.268;2023-05-08T06:40:41;95204.38;;;16.19;60.63
42247;BME280;27913;42.722;23.268;2023-05-08T06:43:07;95200.22;;;16.30;60.09
42247;BME280;27913;42.722;23.268;2023-05-08T06:45:33;95208.13;;;16.56;59.83
42247;BME280;27913;42.722;23.268;2023-05-08T06:47:58;95165.88;;;16.54;59.02
42247;BME280;27913;42.722;23.268;2023-05-08T06:50:24;95203.19;;;16.78;57.51
42247;BME280;27913;42.722;23.268;2023-05-08T06:52:50;95203.56;;;16.82;58.11
42247;BME280;27913;42.722;23.268;2023-05-08T06:55:15;95170.16;;;16.74;57.63
42247;BME280;27913;42.722;23.268;2023-05-08T06:57:41;95209.03;;;16.87;57.14
42247;BME280;27913;42.722;23.268;2023-05-08T07:00:09;95173.84;;;16.54;57.76
42247;BME280;27913;42.722;23.268;2023-05-08T07:02:34;95216.56;;;17.09;57.38
42247;BME280;27913;42.722;23.268;2023-05-08T07:05:00;95180.34;;;17.14;56.87
42247;BME280;27913;42.722;23.268;2023-05-08T07:07:25;95112.47;;;16.62;56.27
42247;BME280;27913;42.722;23.268;2023-05-08T07:09:51;95176.72;;;16.90;56.63
42247;BME280;27913;42.722;23.268;2023-05-08T07:12:17;95215.91;;;16.95;57.31
42247;BME280;27913;42.722;23.268;2023-05-08T07:14:42;95172.22;;;16.72;57.25
42247;BME280;27913;42.722;23.268;2023-05-08T07:17:08;95073.06;;;16.28;57.47
42247;BME280;27913;42.722;23.268;2023-05-08T07:19:34;95206.09;;;17.14;57.32
42247;BME280;27913;42.722;23.268;2023-05-08T07:22:01;95213.97;;;17.02;57.04
42247;BME280;27913;42.722;23.268;2023-05-08T07:24:26;95214.56;;;16.85;58.07
42247;BME280;27913;42.722;23.268;2023-05-08T07:26:52;95153.06;;;16.51;57.99
42247;BME280;27913;42.722;23.268;2023-05-08T07:29:17;95210.00;;;17.11;57.84
42247;BME280;27913;42.722;23.268;2023-05-08T07:31:44;95207.69;;;17.34;57.08
42247;BME280;27913;42.722;23.268;2023-05-08T07:34:11;95164.56;;;17.32;57.31
42247;BME280;27913;42.722;23.268;2023-05-08T07:36:37;95208.41;;;17.84;55.20
42247;BME280;27913;42.722;23.268;2023-05-08T07:39:03;95207.41;;;17.97;55.65
42247;BME280;27913;42.722;23.268;2023-05-08T07:41:28;95215.56;;;18.14;54.16
42247;BME280;27913;42.722;23.268;2023-05-08T07:43:57;95142.16;;;17.82;53.71
42247;BME280;27913;42.722;23.268;2023-05-08T07:46:22;95075.19;;;17.49;52.75
42247;BME280;27913;42.722;23.268;2023-05-08T07:48:48;95183.94;;;17.94;52.71
42247;BME280;27913;42.722;23.268;2023-05-08T07:51:13;95220.34;;;17.93;54.49
42247;BME280;27913;42.722;23.268;2023-05-08T07:53:39;95218.81;;;17.73;56.44
42247;BME280;27913;42.722;23.268;2023-05-08T07:56:05;95189.06;;;17.65;55.35
42247;BME280;27913;42.722;23.268;2023-05-08T07:58:31;95209.25;;;17.96;56.64
42247;BME280;27913;42.722;23.268;2023-05-08T08:00:56;95174.53;;;17.79;56.47
42247;BME280;27913;42.722;23.268;2023-05-08T08:03:22;95075.25;;;17.31;56.23
42247;BME280;27913;42.722;23.268;2023-05-08T08:05:48;95222.56;;;17.96;56.56
42247;BME280;27913;42.722;23.268;2023-05-08T08:08:14;95220.97;;;17.65;57.95
42247;BME280;27913;42.722;23.268;2023-05-08T08:10:39;95074.09;;;16.46;59.37
42247;BME280;27913;42.722;23.268;2023-05-08T08:13:05;95080.25;;;16.77;58.29
42247;BME280;27913;42.722;23.268;2023-05-08T08:15:31;95215.31;;;17.73;57.42
42247;BME280;27913;42.722;23.268;2023-05-08T08:17:56;95083.41;;;17.17;57.30
42247;BME280;27913;42.722;23.268;2023-05-08T08:20:22;95179.88;;;17.91;55.88
42247;BME280;27913;42.722;23.268;2023-05-08T08:22:47;95218.56;;;18.30;56.55
42247;BME280;27913;42.722;23.268;2023-05-08T08:25:13;95163.56;;;18.11;56.76
42247;BME280;27913;42.722;23.268;2023-05-08T08:27:39;95211.88;;;18.63;55.94
42247;BME280;27913;42.722;23.268;2023-05-08T08:30:06;95122.66;;;18.25;55.32
42247;BME280;27913;42.722;23.268;2023-05-08T08:32:31;95203.00;;;18.99;54.54
42247;BME280;27913;42.722;23.268;2023-05-08T08:34:57;95161.53;;;18.91;54.62
42247;BME280;27913;42.722;23.268;2023-05-08T08:37:24;95196.78;;;19.34;53.97
42247;BME280;27913;42.722;23.268;2023-05-08T08:39:50;95158.75;;;18.98;54.25
42247;BME280;27913;42.722;23.268;2023-05-08T08:42:16;95123.69;;;18.89;54.78
42247;BME280;27913;42.722;23.268;2023-05-08T08:44:43;95094.75;;;19.10;53.79
42247;BME280;27913;42.722;23.268;2023-05-08T08:47:15;95150.28;;;19.59;53.03
42247;BME280;27913;42.722;23.268;2023-05-08T08:49:47;95069.38;;;19.07;53.58
42247;BME280;27913;42.722;23.268;2023-05-08T08:52:31;95078.16;;;19.19;53.45
42247;BME280;27913;42.722;23.268;2023-05-08T08:55:01;95033.66;;;18.91;53.82
42247;BME280;27913;42.722;23.268;2023-05-08T08:57:33;95122.75;;;19.53;54.05
42247;BME280;27913;42.722;23.268;2023-05-08T09:00:02;95162.97;;;19.52;54.06
42247;BME280;27913;42.722;23.268;2023-05-08T09:02:30;95051.25;;;18.75;54.50
42247;BME280;27913;42.722;23.268;2023-05-08T09:04:57;95118.53;;;19.11;55.20
42247;BME280;27913;42.722;23.268;2023-05-08T09:07:22;95151.81;;;19.38;55.47
42247;BME280;27913;42.722;23.268;2023-05-08T09:09:49;95010.97;;;18.59;55.63
42247;BME280;27913;42.722;23.268;2023-05-08T09:12:15;95136.34;;;19.40;55.71
42247;BME280;27913;42.722;23.268;2023-05-08T09:14:40;95127.41;;;19.46;55.93
42247;BME280;27913;42.722;23.268;2023-05-08T09:17:06;95105.84;;;19.65;55.42
42247;BME280;27913;42.722;23.268;2023-05-08T09:19:32;95091.53;;;19.71;54.76
42247;BME280;27913;42.722;23.268;2023-05-08T09:22:02;95091.84;;;19.92;53.77
42247;BME280;27913;42.722;23.268;2023-05-08T09:24:53;95125.50;;;20.10;54.75
42247;BME280;27913;42.722;23.268;2023-05-08T09:27:23;95073.84;;;19.65;54.74
42247;BME280;27913;42.722;23.268;2023-05-08T09:32:30;95134.69;;;19.68;56.07
42247;BME280;27913;42.722;23.268;2023-05-08T09:34:57;95115.69;;;19.47;56.03
42247;BME280;27913;42.722;23.268;2023-05-08T09:37:24;95120.78;;;18.90;56.58
42247;BME280;27913;42.722;23.268;2023-05-08T09:39:50;95156.38;;;18.72;58.77
42247;BME280;27913;42.722;23.268;2023-05-08T09:42:15;95096.53;;;18.63;59.19
42247;BME280;27913;42.722;23.268;2023-05-08T09:44:52;95058.81;;;18.66;58.20
42247;BME280;27913;42.722;23.268;2023-05-08T09:47:20;95140.22;;;19.03;58.54
42247;BME280;27913;42.722;23.268;2023-05-08T09:50:02;95132.44;;;19.01;59.59
42247;BME280;27913;42.722;23.268;2023-05-08T09:52:29;95117.75;;;18.99;59.25
42247;BME280;27913;42.722;23.268;2023-05-08T09:55:02;95077.31;;;18.73;59.69
42247;BME280;27913;42.722;23.268;2023-05-08T09:57:31;95070.69;;;19.04;58.21
42247;BME280;27913;42.722;23.268;2023-05-08T10:00:15;95101.00;;;19.62;56.75
42247;BME280;27913;42.722;23.268;2023-05-08T10:02:53;95085.16;;;19.55;57.08
42247;BME280;27913;42.722;23.268;2023-05-08T10:07:47;95085.63;;;19.69;55.97
42247;BME280;27913;42.722;23.268;2023-05-08T10:10:13;95123.72;;;19.99;55.68
42247;BME280;27913;42.722;23.268;2023-05-08T10:12:39;95095.50;;;19.51;56.71
42247;BME280;27913;42.722;23.268;2023-05-08T10:15:06;95042.06;;;19.00;57.86
42247;BME280;27913;42.722;23.268;2023-05-08T10:17:47;95099.03;;;19.40;58.56
42247;BME280;27913;42.722;23.268;2023-05-08T10:20:18;95092.09;;;19.73;57.46
42247;BME280;27913;42.722;23.268;2023-05-08T10:22:46;95116.34;;;19.54;57.83
42247;BME280;27913;42.722;23.268;2023-05-08T10:25:16;95078.75;;;19.22;58.43
42247;BME280;27913;42.722;23.268;2023-05-08T10:28:09;95110.91;;;19.49;58.50
42247;BME280;27913;42.722;23.268;2023-05-08T10:30:42;95060.13;;;18.80;59.54
42247;BME280;27913;42.722;23.268;2023-05-08T10:33:09;95075.22;;;18.75;59.54
42247;BME280;27913;42.722;23.268;2023-05-08T10:35:39;95060.41;;;18.67;59.83
42247;BME280;27913;42.722;23.268;2023-05-08T10:38:07;95085.88;;;18.63;60.70
42247;BME280;27913;42.722;23.268;2023-05-08T10:40:32;95078.56;;;18.70;61.20
42247;BME280;27913;42.722;23.268;2023-05-08T10:42:59;95104.84;;;19.07;60.74
42247;BME280;27913;42.722;23.268;2023-05-08T10:45:25;95107.16;;;19.16;60.75
42247;BME280;27913;42.722;23.268;2023-05-08T10:48:14;95087.25;;;19.36;60.25
42247;BME280;27913;42.722;23.268;2023-05-08T10:51:02;95010.50;;;18.91;59.62
42247;BME280;27913;42.722;23.268;2023-05-08T10:54:08;95085.72;;;19.57;58.92
42247;BME280;27913;42.722;23.268;2023-05-08T10:56:37;95033.69;;;19.37;57.82
42247;BME280;27913;42.722;23.268;2023-05-08T10:59:02;95011.38;;;19.43;57.83
42247;BME280;27913;42.722;23.268;2023-05-08T11:01:28;95090.25;;;20.08;56.60
42247;BME280;27913;42.722;23.268;2023-05-08T11:03:53;95069.03;;;20.01;55.58
42247;BME280;27913;42.722;23.268;2023-05-08T11:06:42;95069.94;;;19.90;55.64
42247;BME280;27913;42.722;23.268;2023-05-08T11:09:08;95020.13;;;19.78;54.66
42247;BME280;27913;42.722;23.268;2023-05-08T11:11:37;95039.75;;;20.24;54.56
42247;BME280;27913;42.722;23.268;2023-05-08T11:19:27;94956.88;;;19.96;51.46
42247;BME280;27913;42.722;23.268;2023-05-08T11:22:23;95040.22;;;20.66;51.70
42247;BME280;27913;42.722;23.268;2023-05-08T11:24:59;94983.84;;;20.39;51.23
42247;BME280;27913;42.722;23.268;2023-05-08T11:27:36;94904.72;;;20.06;51.61
42247;BME280;27913;42.722;23.268;2023-05-08T11:36:10;95039.03;;;21.34;50.61
42247;BME280;27913;42.722;23.268;2023-05-08T11:48:31;95006.91;;;22.90;45.33
42247;BME280;27913;42.722;23.268;2023-05-08T11:51:01;94979.84;;;22.91;42.86
42247;BME280;27913;42.722;23.268;2023-05-08T11:53:28;94944.59;;;22.36;44.18
42247;BME280;27913;42.722;23.268;2023-05-08T11:55:58;94942.84;;;22.67;42.98
42247;BME280;27913;42.722;23.268;2023-05-08T11:58:24;95001.59;;;23.11;42.35
42247;BME280;27913;42.722;23.268;2023-05-08T12:00:50;94951.16;;;22.97;41.79
42247;BME280;27913;42.722;23.268;2023-05-08T12:03:17;94994.06;;;23.34;42.02
42247;BME280;27913;42.722;23.268;2023-05-08T12:05:43;94993.78;;;22.78;42.78
42247;BME280;27913;42.722;23.268;2023-05-08T12:08:10;94950.34;;;22.97;42.14
42247;BME280;27913;42.722;23.268;2023-05-08T12:13:15;94895.91;;;23.48;40.09
42247;BME280;27913;42.722;23.268;2023-05-08T12:15:41;94954.56;;;23.86;39.59
42247;BME280;27913;42.722;23.268;2023-05-08T12:18:07;94922.94;;;23.73;39.09
42247;BME280;27913;42.722;23.268;2023-05-08T12:20:32;94950.56;;;23.84;40.75
42247;BME280;27913;42.722;23.268;2023-05-08T12:23:01;94972.31;;;23.87;40.36
42247;BME280;27913;42.722;23.268;2023-05-08T12:25:27;94958.16;;;23.35;41.04
42247;BME280;27913;42.722;23.268;2023-05-08T12:27:52;94923.81;;;23.00;41.34
42247;BME280;27913;42.722;23.268;2023-05-08T12:30:18;94943.41;;;23.11;41.82
42247;BME280;27913;42.722;23.268;2023-05-08T12:32:45;94984.72;;;23.21;41.49
42247;BME280;27913;42.722;23.268;2023-05-08T12:35:11;94924.63;;;22.80;41.30
42247;BME280;27913;42.722;23.268;2023-05-08T12:37:37;94954.66;;;23.29;40.74
42247;BME280;27913;42.722;23.268;2023-05-08T12:40:04;94927.03;;;22.76;40.94
42247;BME280;27913;42.722;23.268;2023-05-08T12:42:44;94891.31;;;22.44;41.16
42247;BME280;27913;42.722;23.268;2023-05-08T12:45:27;94937.22;;;23.16;40.33
42247;BME280;27913;42.722;23.268;2023-05-08T12:47:58;94966.22;;;23.14;40.59
42247;BME280;27913;42.722;23.268;2023-05-08T12:50:23;94918.19;;;23.02;40.42
42247;BME280;27913;42.722;23.268;2023-05-08T12:52:50;94970.22;;;23.22;40.42
42247;BME280;27913;42.722;23.268;2023-05-08T12:55:26;94937.75;;;23.08;39.08
42247;BME280;27913;42.722;23.268;2023-05-08T12:58:09;94925.16;;;22.82;38.49
42247;BME280;27913;42.722;23.268;2023-05-08T13:00:40;94843.69;;;21.67;39.47
42247;BME280;27913;42.722;23.268;2023-05-08T13:03:07;94973.63;;;21.90;40.51
42247;BME280;27913;42.722;23.268;2023-05-08T13:05:34;94969.75;;;22.24;40.76
42247;BME280;27913;42.722;23.268;2023-05-08T13:08:06;94980.91;;;22.05;42.91
42247;BME280;27913;42.722;23.268;2023-05-08T13:10:53;94956.34;;;21.70;44.19
42247;BME280;27913;42.722;23.268;2023-05-08T13:13:21;94851.00;;;20.90;44.64
42247;BME280;27913;42.722;23.268;2023-05-08T13:15:47;94981.91;;;21.51;51.84
42247;BME280;27913;42.722;23.268;2023-05-08T13:18:14;94965.63;;;20.86;54.28
42247;BME280;27913;42.722;23.268;2023-05-08T13:20:40;94887.63;;;20.07;55.65
42247;BME280;27913;42.722;23.268;2023-05-08T13:23:06;94948.03;;;20.13;57.83
42247;BME280;27913;42.722;23.268;2023-05-08T13:25:33;94952.41;;;19.79;59.19
42247;BME280;27913;42.722;23.268;2023-05-08T13:28:00;94944.53;;;19.67;59.50
42247;BME280;27913;42.722;23.268;2023-05-08T13:30:25;94982.78;;;19.78;59.52
42247;BME280;27913;42.722;23.268;2023-05-08T13:32:51;94985.16;;;19.75;59.89
42247;BME280;27913;42.722;23.268;2023-05-08T13:35:17;94924.03;;;19.34;59.77
42247;BME280;27913;42.722;23.268;2023-05-08T13:37:43;94982.19;;;19.54;60.64
42247;BME280;27913;42.722;23.268;2023-05-08T13:40:09;94931.94;;;18.77;61.46
42247;BME280;27913;42.722;23.268;2023-05-08T13:42:35;95025.69;;;19.37;62.22
42247;BME280;27913;42.722;23.268;2023-05-08T13:45:03;95033.66;;;19.20;62.79
42247;BME280;27913;42.722;23.268;2023-05-08T13:47:28;94996.94;;;18.93;62.82
42247;BME280;27913;42.722;23.268;2023-05-08T13:49:54;95040.03;;;19.19;63.41
42247;BME280;27913;42.722;23.268;2023-05-08T13:52:19;94950.84;;;18.46;64.39
42247;BME280;27913;42.722;23.268;2023-05-08T13:54:45;95047.53;;;18.76;65.11